首页
METAR-TAF:

METAR-TAF

机场 :

Sheridan County Airport

Sheridan, 怀俄明州, 美国

纬度: 44-46-10N, 经度: 106-58-08W, 海拔: 1225米

当前天气观测

该预报发布于35分钟前的04:53 UTC
风速6节,风向
温度 17°C
湿度 82%
气压 1011 hPa
能見度: 16.1公里
天空无云

METAR: KSHR 180453Z AUTO 18006KT 10SM CLR 17/14 A2986 RMK AO2 SLP078 T01720144

时间: 23:28 (05:28 UTC)

预报

该预报发布于6小时和3分钟前的23:25 UTC
预报有效从18日的 00点(UTC)到 18日的 24点(UTC)
风速9节,风向西北
能見度: 10公里
散云层高于8000英尺, 积雨云.
多云层高于15000英尺
附近有雷暴
从 18日的 0200点(UTC)
风速5节,风向多变
能見度: 10公里
多云层高于9000英尺
附近有阵雨
从 18日的 0600点(UTC)
风速5节,风向多变
能見度: 10公里
散云层高于10000英尺
从 18日的 1200点(UTC)
风速7节,风向西北
能見度: 10公里
散云层高于15000英尺

TAF: KSHR 172325Z 1800/1824 31009KT P6SM VCTS SCT080CB BKN150 FM180200 VRB05KT P6SM VCSH BKN090 FM180600 VRB05KT P6SM SCT100 FM181200 31007KT P6SM SCT150

超过4000个机场的气象观测和天气预报(METAR&TAF报告)。

可查询的气象台以黄色和红色小点在地图上表示。

将鼠标移到小点上方,可查看气象台名称。

然后点击查看天气观测和预报。

如需切换地图:点击带黑十字的绿色按钮放大地图;点击带横线的绿色按钮缩小地图;或者点击绿色箭头查看邻近地区的地图。


METAR-TAF: